Brandenburg, KY

2:14 PM EDT on August 04, 2015 (GMT -0400)
Old Weldon | | Change Station
CLOSE
Current Station
Personal Weather Station
Location: Brandenburg, KY
Elevation: 636 ft
Nearby Weather Stations

Elev 636 ft 37.97 °N, 86.13 °W | Updated 58 seconds ago

Partly Cloudy
Partly Cloudy
87.4 °F
Feels Like 95 °F
N
0.0
Wind Variable Wind from NNW
Gusts 0.0 mph

Today
High -- | Low -- °F
--% Chance of Precip.
Yesterday
High -- | Low -- °F
Precip. -- in
6:49 AM 8:50 PM
Waning Gibbous, 75% visible
Pressure 29.99 in
Visibility 10.0 miles
Clouds Few 16000 ft
Heat Index 95 °F
Dew Point 73 °F
Humidity 63%
Rainfall 0.00 in
Snow Depth Not available.
UV 11 out of 12
Pollen 5.70 out of 12
Air Quality Not available.
Flu Activity Not available.
METAR KFTK 041758Z AUTO 30009KT 10SM FEW160 31/21 A3000 RMK AO2 SLP154 60000 T03050210 10305 20215 50000

More Conditions Fewer Conditions

Pressure 29.99 in
Visibility 10.0 miles
Clouds Few 16000 ft
Heat Index 95 °F
Dew Point 73 °F
Humidity 63%
Rainfall 0.00 in
Snow Depth Not available.
UV 11 out of 12
Pollen 5.70 out of 12
Air Quality Not available.
Flu Activity Not available.
METAR KFTK 041758Z AUTO 30009KT 10SM FEW160 31/21 A3000 RMK AO2 SLP154 60000 T03050210 10305 20215 50000

More Conditions Fewer Conditions

10-Day Weather Forecast

×

Almanac

Astronomy

Aug. 04, 2015 Rise Set
Actual Time
Civil Twilight
Nautical Twilight
Astronomical Twilight
Moon
Length of Visible Light
Length of Day
Tomorrow will be .
, % of the Moon is Illuminated

Today's Extremes

State Highs State Lows

Community

WunderPhotos

Upload Photos

1,843,935 photos uploaded!

WunderBlogs® & News

Nearby

Air Quality

  Air Quality AQ Index Pollutant
Not available.

Snow Depth

Station Depth Elevation

Earthquake Activity

City Distance Mag. Time & Date
Minimum magnitude displayed is 2.5.

Coastal Water Temperatures

Place Temperature

Stations

Nearby Weather Stations

Station Location Temp. Windchill Dew Point Humidity Wind Precip. Elev Updated Type